sensor_id;sensor_type;location;lat;lon;timestamp;temperature;humidity
12726;DHT22;6427;49.754;6.106;2024-01-15T00:00:41;-0.40;99.90
12726;DHT22;6427;49.754;6.106;2024-01-15T00:03:09;-0.30;99.90
12726;DHT22;6427;49.754;6.106;2024-01-15T00:08:15;-0.40;99.90
12726;DHT22;6427;49.754;6.106;2024-01-15T00:10:42;-0.40;99.90
12726;DHT22;6427;49.754;6.106;2024-01-15T00:13:10;-0.50;99.90
12726;DHT22;6427;49.754;6.106;2024-01-15T00:15:38;-0.50;99.90
12726;DHT22;6427;49.754;6.106;2024-01-15T00:18:06;-0.60;99.90
12726;DHT22;6427;49.754;6.106;2024-01-15T00:20:34;-0.50;99.90
12726;DHT22;6427;49.754;6.106;2024-01-15T00:23:02;-0.60;99.90
12726;DHT22;6427;49.754;6.106;2024-01-15T00:25:29;-0.60;99.90
12726;DHT22;6427;49.754;6.106;2024-01-15T00:27:57;-0.60;99.90
12726;DHT22;6427;49.754;6.106;2024-01-15T00:30:25;-0.60;99.90
12726;DHT22;6427;49.754;6.106;2024-01-15T00:32:53;-0.60;99.90
12726;DHT22;6427;49.754;6.106;2024-01-15T00:35:21;-0.60;99.90
12726;DHT22;6427;49.754;6.106;2024-01-15T00:37:48;-0.50;99.90
12726;DHT22;6427;49.754;6.106;2024-01-15T00:40:16;-0.50;99.90
12726;DHT22;6427;49.754;6.106;2024-01-15T00:42:43;-0.60;99.90
12726;DHT22;6427;49.754;6.106;2024-01-15T00:45:11;-0.50;99.90
12726;DHT22;6427;49.754;6.106;2024-01-15T00:47:39;-0.50;99.90
12726;DHT22;6427;49.754;6.106;2024-01-15T00:50:06;-0.60;99.90
12726;DHT22;6427;49.754;6.106;2024-01-15T00:52:34;-0.50;99.90
12726;DHT22;6427;49.754;6.106;2024-01-15T00:55:01;-0.50;99.90
12726;DHT22;6427;49.754;6.106;2024-01-15T00:57:30;-0.50;99.90
12726;DHT22;6427;49.754;6.106;2024-01-15T00:59:57;-0.50;99.90
12726;DHT22;6427;49.754;6.106;2024-01-15T01:02:25;-0.50;99.90
12726;DHT22;6427;49.754;6.106;2024-01-15T01:04:53;-0.40;99.90
12726;DHT22;6427;49.754;6.106;2024-01-15T01:07:20;-0.40;99.90
12726;DHT22;6427;49.754;6.106;2024-01-15T01:09:48;-0.40;99.90
12726;DHT22;6427;49.754;6.106;2024-01-15T01:12:15;-0.40;99.90
12726;DHT22;6427;49.754;6.106;2024-01-15T01:14:43;-0.40;99.90
12726;DHT22;6427;49.754;6.106;2024-01-15T01:17:11;-0.30;99.90
12726;DHT22;6427;49.754;6.106;2024-01-15T01:19:38;-0.30;99.90
12726;DHT22;6427;49.754;6.106;2024-01-15T01:22:06;0.00;99.90
12726;DHT22;6427;49.754;6.106;2024-01-15T01:24:37;-0.10;99.90
12726;DHT22;6427;49.754;6.106;2024-01-15T01:27:01;-0.10;99.90
12726;DHT22;6427;49.754;6.106;2024-01-15T01:29:29;-0.10;99.90
12726;DHT22;6427;49.754;6.106;2024-01-15T01:31:57;-0.10;99.90
12726;DHT22;6427;49.754;6.106;2024-01-15T01:34:25;-0.10;99.90
12726;DHT22;6427;49.754;6.106;2024-01-15T01:36:53;-0.10;99.90
12726;DHT22;6427;49.754;6.106;2024-01-15T01:39:21;-0.10;99.90
12726;DHT22;6427;49.754;6.106;2024-01-15T01:41:48;-0.10;99.90
12726;DHT22;6427;49.754;6.106;2024-01-15T01:44:16;-0.10;99.90
12726;DHT22;6427;49.754;6.106;2024-01-15T01:46:44;-0.10;99.90
12726;DHT22;6427;49.754;6.106;2024-01-15T01:49:12;-0.10;99.90
12726;DHT22;6427;49.754;6.106;2024-01-15T01:51:41;0.00;99.90
12726;DHT22;6427;49.754;6.106;2024-01-15T01:54:08;0.00;99.90
12726;DHT22;6427;49.754;6.106;2024-01-15T01:56:37;0.00;99.90
12726;DHT22;6427;49.754;6.106;2024-01-15T01:59:05;0.00;99.90
12726;DHT22;6427;49.754;6.106;2024-01-15T02:01:33;0.00;99.90
12726;DHT22;6427;49.754;6.106;2024-01-15T02:04:00;0.00;99.90
12726;DHT22;6427;49.754;6.106;2024-01-15T02:06:28;0.00;99.90
12726;DHT22;6427;49.754;6.106;2024-01-15T02:08:56;0.10;99.90
12726;DHT22;6427;49.754;6.106;2024-01-15T02:11:24;0.10;99.90
12726;DHT22;6427;49.754;6.106;2024-01-15T02:13:51;0.10;99.90
12726;DHT22;6427;49.754;6.106;2024-01-15T02:16:19;0.40;99.90
12726;DHT22;6427;49.754;6.106;2024-01-15T02:18:47;0.70;99.90
12726;DHT22;6427;49.754;6.106;2024-01-15T02:21:15;1.00;99.90
12726;DHT22;6427;49.754;6.106;2024-01-15T02:23:42;0.80;99.90
12726;DHT22;6427;49.754;6.106;2024-01-15T02:26:09;0.70;99.90
12726;DHT22;6427;49.754;6.106;2024-01-15T02:28:37;0.60;99.90
12726;DHT22;6427;49.754;6.106;2024-01-15T02:31:05;0.50;99.90
12726;DHT22;6427;49.754;6.106;2024-01-15T02:33:33;0.50;99.90
12726;DHT22;6427;49.754;6.106;2024-01-15T02:36:01;0.70;99.90
12726;DHT22;6427;49.754;6.106;2024-01-15T02:38:29;0.70;99.90
12726;DHT22;6427;49.754;6.106;2024-01-15T02:40:56;0.70;99.90
12726;DHT22;6427;49.754;6.106;2024-01-15T02:43:24;0.60;99.90
12726;DHT22;6427;49.754;6.106;2024-01-15T02:45:52;0.60;99.90
12726;DHT22;6427;49.754;6.106;2024-01-15T02:48:19;0.80;99.90
12726;DHT22;6427;49.754;6.106;2024-01-15T02:50:47;0.70;99.90
12726;DHT22;6427;49.754;6.106;2024-01-15T02:53:15;0.80;99.90
12726;DHT22;6427;49.754;6.106;2024-01-15T02:55:43;0.80;99.90
12726;DHT22;6427;49.754;6.106;2024-01-15T02:58:10;0.70;99.90
12726;DHT22;6427;49.754;6.106;2024-01-15T03:00:38;0.60;99.90
12726;DHT22;6427;49.754;6.106;2024-01-15T03:03:06;0.60;99.90
12726;DHT22;6427;49.754;6.106;2024-01-15T03:05:34;0.70;99.90
12726;DHT22;6427;49.754;6.106;2024-01-15T03:08:01;0.70;99.90
12726;DHT22;6427;49.754;6.106;2024-01-15T03:10:29;0.70;99.90
12726;DHT22;6427;49.754;6.106;2024-01-15T03:12:57;0.60;99.90
12726;DHT22;6427;49.754;6.106;2024-01-15T03:15:24;0.50;99.90
12726;DHT22;6427;49.754;6.106;2024-01-15T03:17:53;0.70;99.90
12726;DHT22;6427;49.754;6.106;2024-01-15T03:20:21;0.60;99.90
12726;DHT22;6427;49.754;6.106;2024-01-15T03:22:49;0.60;99.90
12726;DHT22;6427;49.754;6.106;2024-01-15T03:25:16;0.60;99.90
12726;DHT22;6427;49.754;6.106;2024-01-15T03:27:44;0.50;99.90
12726;DHT22;6427;49.754;6.106;2024-01-15T03:30:12;0.50;99.90
12726;DHT22;6427;49.754;6.106;2024-01-15T03:32:40;0.40;99.90
12726;DHT22;6427;49.754;6.106;2024-01-15T03:35:08;0.40;99.90
12726;DHT22;6427;49.754;6.106;2024-01-15T03:37:36;0.40;99.90
12726;DHT22;6427;49.754;6.106;2024-01-15T03:40:04;0.40;99.90
12726;DHT22;6427;49.754;6.106;2024-01-15T03:42:31;0.40;99.90
12726;DHT22;6427;49.754;6.106;2024-01-15T03:44:59;0.40;99.90
12726;DHT22;6427;49.754;6.106;2024-01-15T03:47:26;0.40;99.90
12726;DHT22;6427;49.754;6.106;2024-01-15T03:49:54;0.40;99.90
12726;DHT22;6427;49.754;6.106;2024-01-15T03:52:22;0.40;99.90
12726;DHT22;6427;49.754;6.106;2024-01-15T03:54:49;0.40;99.90
12726;DHT22;6427;49.754;6.106;2024-01-15T03:57:17;0.70;99.90
12726;DHT22;6427;49.754;6.106;2024-01-15T03:59:44;1.00;99.90
12726;DHT22;6427;49.754;6.106;2024-01-15T04:02:12;0.90;99.90
12726;DHT22;6427;49.754;6.106;2024-01-15T04:04:41;0.70;99.90
12726;DHT22;6427;49.754;6.106;2024-01-15T04:07:09;0.70;99.90
12726;DHT22;6427;49.754;6.106;2024-01-15T04:09:36;0.90;99.90
12726;DHT22;6427;49.754;6.106;2024-01-15T04:12:05;0.90;99.90
12726;DHT22;6427;49.754;6.106;2024-01-15T04:14:32;0.90;99.90
12726;DHT22;6427;49.754;6.106;2024-01-15T04:17:00;0.80;99.90
12726;DHT22;6427;49.754;6.106;2024-01-15T04:19:28;0.80;99.90
12726;DHT22;6427;49.754;6.106;2024-01-15T04:21:55;1.00;99.90
12726;DHT22;6427;49.754;6.106;2024-01-15T04:24:23;0.80;99.90
12726;DHT22;6427;49.754;6.106;2024-01-15T04:26:51;0.80;99.90
12726;DHT22;6427;49.754;6.106;2024-01-15T04:29:19;0.70;99.90
12726;DHT22;6427;49.754;6.106;2024-01-15T04:31:47;0.70;99.90
12726;DHT22;6427;49.754;6.106;2024-01-15T04:34:15;1.00;99.90
12726;DHT22;6427;49.754;6.106;2024-01-15T04:36:43;1.00;99.90
12726;DHT22;6427;49.754;6.106;2024-01-15T04:39:11;1.20;99.90
12726;DHT22;6427;49.754;6.106;2024-01-15T04:41:40;1.10;99.90
12726;DHT22;6427;49.754;6.106;2024-01-15T04:44:07;1.10;99.90
12726;DHT22;6427;49.754;6.106;2024-01-15T04:46:36;0.90;99.90
12726;DHT22;6427;49.754;6.106;2024-01-15T04:49:03;0.90;99.90
12726;DHT22;6427;49.754;6.106;2024-01-15T04:51:31;0.80;99.90
12726;DHT22;6427;49.754;6.106;2024-01-15T04:53:59;1.00;99.90
12726;DHT22;6427;49.754;6.106;2024-01-15T04:56:27;1.00;99.90
12726;DHT22;6427;49.754;6.106;2024-01-15T04:58:54;0.90;99.90
12726;DHT22;6427;49.754;6.106;2024-01-15T05:01:22;0.90;99.90
12726;DHT22;6427;49.754;6.106;2024-01-15T05:03:50;0.80;99.90
12726;DHT22;6427;49.754;6.106;2024-01-15T05:06:17;0.80;99.90
12726;DHT22;6427;49.754;6.106;2024-01-15T05:08:45;0.80;99.90
12726;DHT22;6427;49.754;6.106;2024-01-15T05:11:12;1.10;99.90
12726;DHT22;6427;49.754;6.106;2024-01-15T05:13:40;1.10;99.90
12726;DHT22;6427;49.754;6.106;2024-01-15T05:16:08;0.90;99.90
12726;DHT22;6427;49.754;6.106;2024-01-15T05:18:36;0.90;99.90
12726;DHT22;6427;49.754;6.106;2024-01-15T05:21:04;1.10;99.90
12726;DHT22;6427;49.754;6.106;2024-01-15T05:23:32;1.10;99.90
12726;DHT22;6427;49.754;6.106;2024-01-15T05:26:00;1.00;99.90
12726;DHT22;6427;49.754;6.106;2024-01-15T05:28:28;1.00;99.90
12726;DHT22;6427;49.754;6.106;2024-01-15T05:30:56;1.20;99.90
12726;DHT22;6427;49.754;6.106;2024-01-15T05:33:24;1.10;99.90
12726;DHT22;6427;49.754;6.106;2024-01-15T05:35:52;1.10;99.90
12726;DHT22;6427;49.754;6.106;2024-01-15T05:38:20;1.10;99.90
12726;DHT22;6427;49.754;6.106;2024-01-15T05:40:47;1.00;99.90
12726;DHT22;6427;49.754;6.106;2024-01-15T05:43:15;1.20;99.90
12726;DHT22;6427;49.754;6.106;2024-01-15T05:45:42;1.20;99.90
12726;DHT22;6427;49.754;6.106;2024-01-15T05:48:10;1.10;99.90
12726;DHT22;6427;49.754;6.106;2024-01-15T05:50:38;1.30;99.90
12726;DHT22;6427;49.754;6.106;2024-01-15T05:53:05;1.30;99.90
12726;DHT22;6427;49.754;6.106;2024-01-15T05:55:33;1.20;99.90
12726;DHT22;6427;49.754;6.106;2024-01-15T05:58:00;1.40;99.90
12726;DHT22;6427;49.754;6.106;2024-01-15T06:00:28;1.30;99.90
12726;DHT22;6427;49.754;6.106;2024-01-15T06:02:56;1.20;99.90
12726;DHT22;6427;49.754;6.106;2024-01-15T06:05:23;1.10;99.90
12726;DHT22;6427;49.754;6.106;2024-01-15T06:07:51;1.00;99.90
12726;DHT22;6427;49.754;6.106;2024-01-15T06:10:19;0.90;99.90
12726;DHT22;6427;49.754;6.106;2024-01-15T06:12:47;0.90;99.90
12726;DHT22;6427;49.754;6.106;2024-01-15T06:15:15;1.10;99.90
12726;DHT22;6427;49.754;6.106;2024-01-15T06:17:43;1.10;99.90
12726;DHT22;6427;49.754;6.106;2024-01-15T06:20:11;1.00;99.90
12726;DHT22;6427;49.754;6.106;2024-01-15T06:22:39;1.00;99.90
12726;DHT22;6427;49.754;6.106;2024-01-15T06:25:07;0.90;99.90
12726;DHT22;6427;49.754;6.106;2024-01-15T06:27:35;1.20;99.90
12726;DHT22;6427;49.754;6.106;2024-01-15T06:30:02;1.20;99.90
12726;DHT22;6427;49.754;6.106;2024-01-15T06:32:30;1.10;99.90
12726;DHT22;6427;49.754;6.106;2024-01-15T06:34:57;1.10;99.90
12726;DHT22;6427;49.754;6.106;2024-01-15T06:37:25;1.10;99.90
12726;DHT22;6427;49.754;6.106;2024-01-15T06:39:53;1.00;99.90
12726;DHT22;6427;49.754;6.106;2024-01-15T06:42:20;1.30;99.90
12726;DHT22;6427;49.754;6.106;2024-01-15T06:44:48;1.60;99.90
12726;DHT22;6427;49.754;6.106;2024-01-15T06:47:15;1.50;99.90
12726;DHT22;6427;49.754;6.106;2024-01-15T06:49:43;1.40;99.90
12726;DHT22;6427;49.754;6.106;2024-01-15T06:52:11;1.20;99.90
12726;DHT22;6427;49.754;6.106;2024-01-15T06:54:39;1.20;99.90
12726;DHT22;6427;49.754;6.106;2024-01-15T06:57:07;1.10;99.90
12726;DHT22;6427;49.754;6.106;2024-01-15T06:59:36;1.10;99.90
12726;DHT22;6427;49.754;6.106;2024-01-15T07:02:04;1.00;99.90
12726;DHT22;6427;49.754;6.106;2024-01-15T07:04:32;1.00;99.90
12726;DHT22;6427;49.754;6.106;2024-01-15T07:06:59;1.00;99.90
12726;DHT22;6427;49.754;6.106;2024-01-15T07:09:27;0.90;99.90
12726;DHT22;6427;49.754;6.106;2024-01-15T07:11:54;0.90;99.90
12726;DHT22;6427;49.754;6.106;2024-01-15T07:14:22;0.90;99.90
12726;DHT22;6427;49.754;6.106;2024-01-15T07:16:50;0.80;99.90
12726;DHT22;6427;49.754;6.106;2024-01-15T07:19:18;0.80;99.90
12726;DHT22;6427;49.754;6.106;2024-01-15T07:21:46;0.80;99.90
12726;DHT22;6427;49.754;6.106;2024-01-15T07:24:13;1.10;99.90
12726;DHT22;6427;49.754;6.106;2024-01-15T07:26:41;1.10;99.90
12726;DHT22;6427;49.754;6.106;2024-01-15T07:29:08;1.10;99.90
12726;DHT22;6427;49.754;6.106;2024-01-15T07:31:36;1.00;99.90
12726;DHT22;6427;49.754;6.106;2024-01-15T07:34:04;1.00;99.90
12726;DHT22;6427;49.754;6.106;2024-01-15T07:36:31;1.00;99.90
12726;DHT22;6427;49.754;6.106;2024-01-15T07:38:59;1.00;99.90
12726;DHT22;6427;49.754;6.106;2024-01-15T07:41:26;1.00;99.90
12726;DHT22;6427;49.754;6.106;2024-01-15T07:43:55;1.00;99.90
12726;DHT22;6427;49.754;6.106;2024-01-15T07:46:23;1.00;99.90
12726;DHT22;6427;49.754;6.106;2024-01-15T07:48:51;1.00;99.90
12726;DHT22;6427;49.754;6.106;2024-01-15T07:51:19;1.20;99.90
12726;DHT22;6427;49.754;6.106;2024-01-15T07:53:47;1.30;99.90
12726;DHT22;6427;49.754;6.106;2024-01-15T07:56:15;1.20;99.90
12726;DHT22;6427;49.754;6.106;2024-01-15T07:58:43;1.20;99.90
12726;DHT22;6427;49.754;6.106;2024-01-15T08:01:10;1.10;99.90
12726;DHT22;6427;49.754;6.106;2024-01-15T08:03:38;1.30;99.90
12726;DHT22;6427;49.754;6.106;2024-01-15T08:06:05;1.30;99.90
12726;DHT22;6427;49.754;6.106;2024-01-15T08:08:33;1.20;99.90
12726;DHT22;6427;49.754;6.106;2024-01-15T08:11:01;1.50;99.90
12726;DHT22;6427;49.754;6.106;2024-01-15T08:13:28;1.50;99.90
12726;DHT22;6427;49.754;6.106;2024-01-15T08:15:56;1.30;99.90
12726;DHT22;6427;49.754;6.106;2024-01-15T08:18:23;1.30;99.90
12726;DHT22;6427;49.754;6.106;2024-01-15T08:20:51;1.30;99.90
12726;DHT22;6427;49.754;6.106;2024-01-15T08:23:18;1.20;99.90
12726;DHT22;6427;49.754;6.106;2024-01-15T08:25:46;1.20;99.90
12726;DHT22;6427;49.754;6.106;2024-01-15T08:28:14;1.10;99.90
12726;DHT22;6427;49.754;6.106;2024-01-15T08:30:42;1.10;99.90
12726;DHT22;6427;49.754;6.106;2024-01-15T08:33:10;1.10;99.90
12726;DHT22;6427;49.754;6.106;2024-01-15T08:35:37;1.40;99.90
12726;DHT22;6427;49.754;6.106;2024-01-15T08:38:05;1.60;99.90
12726;DHT22;6427;49.754;6.106;2024-01-15T08:40:32;1.60;99.90
12726;DHT22;6427;49.754;6.106;2024-01-15T08:43:01;1.40;99.90
12726;DHT22;6427;49.754;6.106;2024-01-15T08:45:29;1.40;99.90
12726;DHT22;6427;49.754;6.106;2024-01-15T08:47:57;1.30;99.90
12726;DHT22;6427;49.754;6.106;2024-01-15T08:50:25;1.60;99.90
12726;DHT22;6427;49.754;6.106;2024-01-15T08:52:53;1.50;99.90
12726;DHT22;6427;49.754;6.106;2024-01-15T08:55:21;1.50;99.90
12726;DHT22;6427;49.754;6.106;2024-01-15T08:57:49;1.30;99.90
12726;DHT22;6427;49.754;6.106;2024-01-15T09:00:18;1.30;99.90
12726;DHT22;6427;49.754;6.106;2024-01-15T09:02:45;1.30;99.90
12726;DHT22;6427;49.754;6.106;2024-01-15T09:05:13;1.30;99.90
12726;DHT22;6427;49.754;6.106;2024-01-15T09:07:41;1.30;99.90
12726;DHT22;6427;49.754;6.106;2024-01-15T09:10:09;1.30;99.90
12726;DHT22;6427;49.754;6.106;2024-01-15T09:12:36;1.30;99.90
12726;DHT22;6427;49.754;6.106;2024-01-15T09:15:04;1.30;99.90
12726;DHT22;6427;49.754;6.106;2024-01-15T09:17:32;1.30;99.90
12726;DHT22;6427;49.754;6.106;2024-01-15T09:20:00;1.30;99.90
12726;DHT22;6427;49.754;6.106;2024-01-15T09:22:29;1.30;99.90
12726;DHT22;6427;49.754;6.106;2024-01-15T09:24:56;1.30;99.90
12726;DHT22;6427;49.754;6.106;2024-01-15T09:27:24;1.30;99.90
12726;DHT22;6427;49.754;6.106;2024-01-15T09:29:52;1.30;99.90
12726;DHT22;6427;49.754;6.106;2024-01-15T09:32:19;1.60;99.90
12726;DHT22;6427;49.754;6.106;2024-01-15T09:34:46;1.60;99.90
12726;DHT22;6427;49.754;6.106;2024-01-15T09:37:15;1.60;99.90
12726;DHT22;6427;49.754;6.106;2024-01-15T09:39:42;1.60;99.90
12726;DHT22;6427;49.754;6.106;2024-01-15T09:42:11;1.70;99.90
12726;DHT22;6427;49.754;6.106;2024-01-15T09:44:39;1.70;99.90
12726;DHT22;6427;49.754;6.106;2024-01-15T09:47:08;1.70;99.90
12726;DHT22;6427;49.754;6.106;2024-01-15T09:49:35;1.70;99.90
12726;DHT22;6427;49.754;6.106;2024-01-15T09:52:03;1.70;99.90
12726;DHT22;6427;49.754;6.106;2024-01-15T09:54:30;1.70;99.90
12726;DHT22;6427;49.754;6.106;2024-01-15T09:56:58;1.80;99.90
12726;DHT22;6427;49.754;6.106;2024-01-15T09:59:26;1.80;99.90
12726;DHT22;6427;49.754;6.106;2024-01-15T10:01:53;1.80;99.90
12726;DHT22;6427;49.754;6.106;2024-01-15T10:04:21;1.90;99.90
12726;DHT22;6427;49.754;6.106;2024-01-15T10:09:25;2.00;99.90
12726;DHT22;6427;49.754;6.106;2024-01-15T10:11:53;2.00;99.90
12726;DHT22;6427;49.754;6.106;2024-01-15T10:14:21;2.00;99.90
12726;DHT22;6427;49.754;6.106;2024-01-15T10:16:49;2.00;99.90
12726;DHT22;6427;49.754;6.106;2024-01-15T10:19:16;2.00;99.90
12726;DHT22;6427;49.754;6.106;2024-01-15T10:21:44;2.10;99.90
12726;DHT22;6427;49.754;6.106;2024-01-15T10:24:12;2.40;99.90
12726;DHT22;6427;49.754;6.106;2024-01-15T10:26:41;2.40;99.90
12726;DHT22;6427;49.754;6.106;2024-01-15T10:29:08;2.40;99.90
12726;DHT22;6427;49.754;6.106;2024-01-15T10:31:37;2.40;99.90
12726;DHT22;6427;49.754;6.106;2024-01-15T10:34:11;2.40;99.90
12726;DHT22;6427;49.754;6.106;2024-01-15T10:36:41;2.40;99.90
12726;DHT22;6427;49.754;6.106;2024-01-15T10:39:09;2.40;99.90
12726;DHT22;6427;49.754;6.106;2024-01-15T10:41:37;2.70;99.90
12726;DHT22;6427;49.754;6.106;2024-01-15T10:44:05;2.70;99.90
12726;DHT22;6427;49.754;6.106;2024-01-15T10:46:33;2.90;99.90
12726;DHT22;6427;49.754;6.106;2024-01-15T10:49:01;2.90;99.90
12726;DHT22;6427;49.754;6.106;2024-01-15T10:51:29;3.20;99.90
12726;DHT22;6427;49.754;6.106;2024-01-15T10:53:57;3.00;99.90
12726;DHT22;6427;49.754;6.106;2024-01-15T10:56:25;3.00;99.90
12726;DHT22;6427;49.754;6.106;2024-01-15T10:58:54;3.10;99.90
12726;DHT22;6427;49.754;6.106;2024-01-15T11:01:22;2.90;99.90
12726;DHT22;6427;49.754;6.106;2024-01-15T11:03:49;2.90;99.90
12726;DHT22;6427;49.754;6.106;2024-01-15T11:06:17;2.80;99.90
12726;DHT22;6427;49.754;6.106;2024-01-15T11:08:51;2.60;99.90
12726;DHT22;6427;49.754;6.106;2024-01-15T11:11:18;2.60;99.90
12726;DHT22;6427;49.754;6.106;2024-01-15T11:13:49;2.60;99.90
12726;DHT22;6427;49.754;6.106;2024-01-15T11:16:16;2.60;99.90
12726;DHT22;6427;49.754;6.106;2024-01-15T11:19:05;2.60;99.90
12726;DHT22;6427;49.754;6.106;2024-01-15T11:23:45;2.70;99.90
12726;DHT22;6427;49.754;6.106;2024-01-15T11:29:01;3.10;99.90
12726;DHT22;6427;49.754;6.106;2024-01-15T11:34:09;3.00;99.90
12726;DHT22;6427;49.754;6.106;2024-01-15T11:42:00;3.10;99.90
12726;DHT22;6427;49.754;6.106;2024-01-15T11:44:23;3.10;99.90
12726;DHT22;6427;49.754;6.106;2024-01-15T11:47:04;3.10;99.90
12726;DHT22;6427;49.754;6.106;2024-01-15T11:49:59;3.20;99.90
12726;DHT22;6427;49.754;6.106;2024-01-15T11:52:26;3.20;99.90
12726;DHT22;6427;49.754;6.106;2024-01-15T11:55:07;3.40;99.90
12726;DHT22;6427;49.754;6.106;2024-01-15T12:00:09;3.40;99.90
12726;DHT22;6427;49.754;6.106;2024-01-15T12:02:36;3.50;99.90
12726;DHT22;6427;49.754;6.106;2024-01-15T12:05:04;3.60;99.90
12726;DHT22;6427;49.754;6.106;2024-01-15T12:07:32;3.60;99.90
12726;DHT22;6427;49.754;6.106;2024-01-15T12:09:59;3.70;99.90
12726;DHT22;6427;49.754;6.106;2024-01-15T12:15:01;3.80;99.90
12726;DHT22;6427;49.754;6.106;2024-01-15T12:17:28;3.90;99.90
12726;DHT22;6427;49.754;6.106;2024-01-15T12:19:56;3.90;99.90
12726;DHT22;6427;49.754;6.106;2024-01-15T12:22:24;4.00;99.90
12726;DHT22;6427;49.754;6.106;2024-01-15T12:24:52;4.50;99.90
12726;DHT22;6427;49.754;6.106;2024-01-15T12:27:20;4.50;99.90
12726;DHT22;6427;49.754;6.106;2024-01-15T12:29:47;4.50;99.90
12726;DHT22;6427;49.754;6.106;2024-01-15T12:32:15;4.80;99.90
12726;DHT22;6427;49.754;6.106;2024-01-15T12:34:43;4.80;99.90
12726;DHT22;6427;49.754;6.106;2024-01-15T12:37:10;4.80;99.90
12726;DHT22;6427;49.754;6.106;2024-01-15T12:39:39;4.90;99.90
12726;DHT22;6427;49.754;6.106;2024-01-15T12:42:06;4.90;99.90
12726;DHT22;6427;49.754;6.106;2024-01-15T12:44:34;5.20;99.90
12726;DHT22;6427;49.754;6.106;2024-01-15T12:47:01;5.00;99.90
12726;DHT22;6427;49.754;6.106;2024-01-15T12:49:29;4.90;99.90
12726;DHT22;6427;49.754;6.106;2024-01-15T12:51:57;5.10;99.90
12726;DHT22;6427;49.754;6.106;2024-01-15T12:54:25;5.10;99.90
12726;DHT22;6427;49.754;6.106;2024-01-15T12:56:53;5.10;99.90
12726;DHT22;6427;49.754;6.106;2024-01-15T12:59:21;5.10;99.90
12726;DHT22;6427;49.754;6.106;2024-01-15T13:01:48;4.90;99.90
12726;DHT22;6427;49.754;6.106;2024-01-15T13:04:22;4.60;99.90
12726;DHT22;6427;49.754;6.106;2024-01-15T13:06:50;4.40;99.90
12726;DHT22;6427;49.754;6.106;2024-01-15T13:09:17;4.60;99.90
12726;DHT22;6427;49.754;6.106;2024-01-15T13:11:45;4.40;99.90
12726;DHT22;6427;49.754;6.106;2024-01-15T13:14:12;4.30;99.90
12726;DHT22;6427;49.754;6.106;2024-01-15T13:16:42;4.10;99.70
12726;DHT22;6427;49.754;6.106;2024-01-15T13:19:11;3.90;99.60
12726;DHT22;6427;49.754;6.106;2024-01-15T13:21:42;3.80;99.60
12726;DHT22;6427;49.754;6.106;2024-01-15T13:24:06;3.80;99.80
12726;DHT22;6427;49.754;6.106;2024-01-15T13:26:34;3.70;99.90
12726;DHT22;6427;49.754;6.106;2024-01-15T13:29:03;3.60;99.90
12726;DHT22;6427;49.754;6.106;2024-01-15T13:31:33;3.60;99.90
12726;DHT22;6427;49.754;6.106;2024-01-15T13:34:00;3.60;99.90
12726;DHT22;6427;49.754;6.106;2024-01-15T13:36:29;3.80;99.70
12726;DHT22;6427;49.754;6.106;2024-01-15T13:38:56;3.80;99.70
12726;DHT22;6427;49.754;6.106;2024-01-15T13:41:25;3.90;99.90
12726;DHT22;6427;49.754;6.106;2024-01-15T13:43:53;3.90;99.90
12726;DHT22;6427;49.754;6.106;2024-01-15T13:46:20;3.80;99.90
12726;DHT22;6427;49.754;6.106;2024-01-15T13:48:48;4.00;99.90
12726;DHT22;6427;49.754;6.106;2024-01-15T13:51:16;4.00;99.90
12726;DHT22;6427;49.754;6.106;2024-01-15T13:53:43;3.90;99.90
12726;DHT22;6427;49.754;6.106;2024-01-15T13:56:11;3.90;99.90
12726;DHT22;6427;49.754;6.106;2024-01-15T13:58:39;3.90;99.90
12726;DHT22;6427;49.754;6.106;2024-01-15T14:01:07;3.90;99.90
12726;DHT22;6427;49.754;6.106;2024-01-15T14:03:35;4.20;99.90
12726;DHT22;6427;49.754;6.106;2024-01-15T14:06:04;4.20;99.90
12726;DHT22;6427;49.754;6.106;2024-01-15T14:08:31;4.10;99.90
12726;DHT22;6427;49.754;6.106;2024-01-15T14:11:00;3.90;99.90
12726;DHT22;6427;49.754;6.106;2024-01-15T14:13:27;3.90;99.90
12726;DHT22;6427;49.754;6.106;2024-01-15T14:15:56;4.00;99.90
12726;DHT22;6427;49.754;6.106;2024-01-15T14:18:23;4.00;99.90
12726;DHT22;6427;49.754;6.106;2024-01-15T14:20:51;3.90;99.60
12726;DHT22;6427;49.754;6.106;2024-01-15T14:23:19;4.10;99.40
12726;DHT22;6427;49.754;6.106;2024-01-15T14:25:46;4.00;99.20
12726;DHT22;6427;49.754;6.106;2024-01-15T14:28:14;3.90;99.40
12726;DHT22;6427;49.754;6.106;2024-01-15T14:30:41;3.80;99.50
12726;DHT22;6427;49.754;6.106;2024-01-15T14:33:09;3.70;99.50
12726;DHT22;6427;49.754;6.106;2024-01-15T14:35:36;3.60;99.60
12726;DHT22;6427;49.754;6.106;2024-01-15T14:38:05;3.50;99.90
12726;DHT22;6427;49.754;6.106;2024-01-15T14:40:32;3.50;99.90
12726;DHT22;6427;49.754;6.106;2024-01-15T14:43:00;3.50;99.90
12726;DHT22;6427;49.754;6.106;2024-01-15T14:45:28;3.80;99.90
12726;DHT22;6427;49.754;6.106;2024-01-15T14:47:56;3.80;99.90
12726;DHT22;6427;49.754;6.106;2024-01-15T14:50:23;3.70;99.80
12726;DHT22;6427;49.754;6.106;2024-01-15T14:52:51;3.60;99.70
12726;DHT22;6427;49.754;6.106;2024-01-15T14:55:18;3.50;99.70
12726;DHT22;6427;49.754;6.106;2024-01-15T14:57:46;3.40;99.90
12726;DHT22;6427;49.754;6.106;2024-01-15T15:00:14;3.50;99.90
12726;DHT22;6427;49.754;6.106;2024-01-15T15:02:42;3.50;99.90
12726;DHT22;6427;49.754;6.106;2024-01-15T15:05:10;3.40;99.80
12726;DHT22;6427;49.754;6.106;2024-01-15T15:07:37;3.40;99.90
12726;DHT22;6427;49.754;6.106;2024-01-15T15:10:05;3.20;99.90
12726;DHT22;6427;49.754;6.106;2024-01-15T15:12:33;3.50;99.90
12726;DHT22;6427;49.754;6.106;2024-01-15T15:15:01;3.40;99.90
12726;DHT22;6427;49.754;6.106;2024-01-15T15:17:29;3.60;99.90
12726;DHT22;6427;49.754;6.106;2024-01-15T15:19:57;3.60;99.90
12726;DHT22;6427;49.754;6.106;2024-01-15T15:22:24;3.80;99.60
12726;DHT22;6427;49.754;6.106;2024-01-15T15:24:53;3.50;99.70
12726;DHT22;6427;49.754;6.106;2024-01-15T15:27:20;3.50;99.70
12726;DHT22;6427;49.754;6.106;2024-01-15T15:29:48;3.30;99.90
12726;DHT22;6427;49.754;6.106;2024-01-15T15:32:15;3.20;99.90
12726;DHT22;6427;49.754;6.106;2024-01-15T15:34:44;3.10;99.90
12726;DHT22;6427;49.754;6.106;2024-01-15T15:37:11;3.10;99.90
12726;DHT22;6427;49.754;6.106;2024-01-15T15:39:40;3.30;99.90
12726;DHT22;6427;49.754;6.106;2024-01-15T15:42:08;3.20;99.90
12726;DHT22;6427;49.754;6.106;2024-01-15T15:44:36;3.20;99.90
12726;DHT22;6427;49.754;6.106;2024-01-15T15:47:04;2.90;99.90
12726;DHT22;6427;49.754;6.106;2024-01-15T15:49:32;3.00;99.90
12726;DHT22;6427;49.754;6.106;2024-01-15T15:51:59;2.90;99.90
12726;DHT22;6427;49.754;6.106;2024-01-15T15:54:27;2.80;99.90
12726;DHT22;6427;49.754;6.106;2024-01-15T15:56:54;2.80;99.90
12726;DHT22;6427;49.754;6.106;2024-01-15T15:59:23;3.00;99.90
12726;DHT22;6427;49.754;6.106;2024-01-15T16:01:51;3.00;99.90
12726;DHT22;6427;49.754;6.106;2024-01-15T16:04:18;2.90;99.90
12726;DHT22;6427;49.754;6.106;2024-01-15T16:06:46;2.80;99.90
12726;DHT22;6427;49.754;6.106;2024-01-15T16:09:13;2.80;99.90
12726;DHT22;6427;49.754;6.106;2024-01-15T16:11:42;2.60;99.90
12726;DHT22;6427;49.754;6.106;2024-01-15T16:14:09;2.60;99.90
12726;DHT22;6427;49.754;6.106;2024-01-15T16:16:37;2.60;99.90
12726;DHT22;6427;49.754;6.106;2024-01-15T16:19:04;2.90;99.90
12726;DHT22;6427;49.754;6.106;2024-01-15T16:21:32;2.80;99.90
12726;DHT22;6427;49.754;6.106;2024-01-15T16:23:59;2.70;99.90
12726;DHT22;6427;49.754;6.106;2024-01-15T16:26:27;2.60;99.90